createdAt,value
2023-02-28T00:00:52.351Z,98810.31
2023-02-28T00:03:24.904Z,98807.16
2023-02-28T00:05:56.829Z,98812.13
2023-02-28T00:08:29.866Z,98811.75
2023-02-28T00:11:13.745Z,98807.78
2023-02-28T00:13:48.312Z,98812.88
2023-02-28T00:16:22.963Z,98803.72
2023-02-28T00:18:55.568Z,98810.88
2023-02-28T00:21:28.073Z,98801.94
2023-02-28T00:24:00.799Z,98807.31
2023-02-28T00:26:32.700Z,98806.44
2023-02-28T00:29:05.358Z,98800.88
2023-02-28T00:31:37.244Z,98798.06
2023-02-28T00:34:10.212Z,98802.78
2023-02-28T00:36:46.258Z,98802.63
2023-02-28T00:39:18.851Z,98794.84
2023-02-28T00:41:50.760Z,98803.75
2023-02-28T00:44:23.389Z,98796.28
2023-02-28T00:46:56.453Z,98798.31
2023-02-28T00:49:30.543Z,98798.63
2023-02-28T00:52:02.506Z,98795.72
2023-02-28T00:54:35.579Z,98799.81
2023-02-28T00:57:07.495Z,98797.00
2023-02-28T00:59:40.049Z,98798.41
2023-02-28T01:02:12.546Z,98797.31
2023-02-28T01:04:45.519Z,98800.47
2023-02-28T01:07:17.533Z,98803.25
2023-02-28T01:09:50.460Z,98791.44
2023-02-28T01:12:22.346Z,98794.47
2023-02-28T01:14:54.979Z,98791.88
2023-02-28T01:17:27.497Z,98794.25
2023-02-28T01:20:00.168Z,98786.69
2023-02-28T01:22:32.116Z,98793.66
2023-02-28T01:25:05.171Z,98787.59
2023-02-28T01:27:37.240Z,98785.50
2023-02-28T01:30:11.192Z,98789.88
2023-02-28T01:32:43.428Z,98779.72
2023-02-28T01:35:15.370Z,98792.13
2023-02-28T01:37:47.926Z,98793.13
2023-02-28T01:40:20.285Z,98791.00
2023-02-28T01:42:52.879Z,98792.25
2023-02-28T01:45:30.568Z,98785.81
2023-02-28T01:48:08.990Z,98795.69
2023-02-28T01:50:44.940Z,98783.44
2023-02-28T01:53:30.855Z,98787.91
2023-02-28T01:56:08.079Z,98781.66
2023-02-28T01:58:41.211Z,98772.94
2023-02-28T02:01:22.612Z,98769.63
2023-02-28T02:04:00.161Z,98778.75
2023-02-28T02:06:41.642Z,98775.09
2023-02-28T02:09:16.299Z,98773.66
2023-02-28T02:11:48.517Z,98761.66
2023-02-28T02:14:38.864Z,98767.63
2023-02-28T02:17:35.334Z,98758.94
2023-02-28T02:20:23.720Z,98767.88
2023-02-28T02:23:20.233Z,98773.06
2023-02-28T02:26:13.255Z,98759.44
2023-02-28T02:29:34.355Z,98758.97
2023-02-28T02:32:50.029Z,98756.22
2023-02-28T02:36:08.784Z,98754.78
2023-02-28T02:38:55.360Z,98758.47
2023-02-28T02:41:54.773Z,98756.53
2023-02-28T02:44:46.058Z,98761.19
2023-02-28T02:47:22.652Z,98761.75
2023-02-28T02:49:58.991Z,98758.38
2023-02-28T02:52:46.453Z,98759.63
2023-02-28T02:55:21.942Z,98745.44
2023-02-28T02:58:09.105Z,98760.53
2023-02-28T03:00:48.307Z,98758.84
2023-02-28T03:03:29.956Z,98755.41
2023-02-28T03:06:04.500Z,98747.53
2023-02-28T03:08:39.451Z,98745.63
2023-02-28T03:11:15.881Z,98749.16
2023-02-28T03:14:31.179Z,98750.88
2023-02-28T03:17:41.352Z,98743.47
2023-02-28T03:21:19.035Z,98748.19
2023-02-28T03:24:11.775Z,98748.19
2023-02-28T03:26:51.905Z,98749.03
2023-02-28T03:29:34.788Z,98753.94
2023-02-28T03:32:40.122Z,98748.19
2023-02-28T03:35:23.215Z,98748.66
2023-02-28T03:38:07.980Z,98747.09
2023-02-28T03:40:48.910Z,98746.97
2023-02-28T03:43:27.400Z,98752.81
2023-02-28T03:46:05.147Z,98750.53
2023-02-28T03:48:54.413Z,98758.22
2023-02-28T03:51:29.474Z,98754.50
2023-02-28T03:54:11.200Z,98753.78
2023-02-28T03:57:04.517Z,98759.34
2023-02-28T03:59:43.527Z,98750.88
2023-02-28T04:02:16.316Z,98752.00
2023-02-28T04:04:49.617Z,98758.25
2023-02-28T04:07:22.797Z,98756.06
2023-02-28T04:09:54.715Z,98750.88
2023-02-28T04:12:27.587Z,98758.88
2023-02-28T04:14:59.494Z,98755.97
2023-02-28T04:17:32.122Z,98762.19
2023-02-28T04:20:10.115Z,98767.19
2023-02-28T04:22:42.687Z,98773.13
2023-02-28T04:25:15.744Z,98765.13
2023-02-28T04:27:48.328Z,98763.34
2023-02-28T04:30:20.296Z,98771.47
2023-02-28T04:32:52.952Z,98770.59
2023-02-28T04:35:24.947Z,98764.59
2023-02-28T04:37:57.599Z,98775.19
2023-02-28T04:40:29.728Z,98774.19
2023-02-28T04:43:02.276Z,98769.91
2023-02-28T04:45:34.830Z,98779.06
2023-02-28T04:48:07.526Z,98780.06
2023-02-28T04:50:39.426Z,98782.00
2023-02-28T04:53:12.013Z,98788.66
2023-02-28T04:55:44.026Z,98790.56
2023-02-28T04:58:16.605Z,98796.31
2023-02-28T05:00:48.492Z,98786.19
2023-02-28T05:03:23.405Z,98792.63
2023-02-28T05:05:55.291Z,98791.69
2023-02-28T05:08:27.902Z,98801.06
2023-02-28T05:11:01.784Z,98794.63
2023-02-28T05:13:34.338Z,98796.88
2023-02-28T05:16:06.896Z,98795.75
2023-02-28T05:18:40.216Z,98803.75
2023-02-28T05:21:27.976Z,98792.06
2023-02-28T05:24:07.041Z,98801.19
2023-02-28T05:26:42.884Z,98807.94
2023-02-28T05:29:15.488Z,98801.06
2023-02-28T05:31:48.240Z,98806.13
2023-02-28T05:34:21.333Z,98807.25
2023-02-28T05:36:53.266Z,98807.72
2023-02-28T05:39:26.238Z,98812.44
2023-02-28T05:41:58.282Z,98814.25
2023-02-28T05:44:31.009Z,98808.59
2023-02-28T05:47:03.378Z,98817.50
2023-02-28T05:49:36.579Z,98815.03
2023-02-28T05:52:09.047Z,98822.78
2023-02-28T05:54:41.760Z,98824.72
2023-02-28T05:57:22.860Z,98815.47
2023-02-28T05:59:57.115Z,98816.47
2023-02-28T06:02:29.243Z,98817.81
2023-02-28T06:05:02.315Z,98813.91
2023-02-28T06:07:34.722Z,98815.91
2023-02-28T06:10:08.140Z,98820.28
2023-02-28T06:12:42.509Z,98815.78
2023-02-28T06:15:16.909Z,98812.41
2023-02-28T06:17:48.956Z,98823.13
2023-02-28T06:20:21.557Z,98813.06
2023-02-28T06:22:55.408Z,98821.06
2023-02-28T06:25:29.042Z,98824.13
2023-02-28T06:28:01.022Z,98818.03
2023-02-28T06:30:35.077Z,98823.00
2023-02-28T06:33:07.371Z,98830.66
2023-02-28T06:35:40.032Z,98823.69
2023-02-28T06:38:12.679Z,98833.25
2023-02-28T06:40:46.372Z,98826.16
2023-02-28T06:43:18.300Z,98827.50
2023-02-28T06:45:51.396Z,98838.31
2023-02-28T06:48:24.408Z,98845.63
2023-02-28T06:51:11.722Z,98845.09
2023-02-28T06:53:45.185Z,98842.16
2023-02-28T06:56:19.156Z,98848.81
2023-02-28T06:58:54.111Z,98843.28
2023-02-28T07:01:26.368Z,98839.22
2023-02-28T07:03:59.025Z,98840.81
2023-02-28T07:06:31.014Z,98840.28
2023-02-28T07:09:05.299Z,98846.69
2023-02-28T07:11:37.234Z,98845.34
2023-02-28T07:14:10.027Z,98851.75
2023-02-28T07:16:41.987Z,98858.41
2023-02-28T07:19:14.548Z,98854.91
2023-02-28T07:21:46.457Z,98853.91
2023-02-28T07:24:19.358Z,98859.44
2023-02-28T07:26:51.248Z,98853.78
2023-02-28T07:29:24.063Z,98855.13
2023-02-28T07:31:56.088Z,98855.59
2023-02-28T07:34:28.693Z,98855.59
2023-02-28T07:37:04.576Z,98857.84
2023-02-28T07:39:37.292Z,98856.97
2023-02-28T07:42:12.257Z,98856.75
2023-02-28T07:44:45.235Z,98858.84
2023-02-28T07:47:17.179Z,98866.53
2023-02-28T07:49:50.163Z,98871.44
2023-02-28T07:52:24.267Z,98860.28
2023-02-28T07:54:56.864Z,98867.97
2023-02-28T07:57:28.810Z,98863.22
2023-02-28T08:00:01.904Z,98865.69
2023-02-28T08:02:43.925Z,98867.00
2023-02-28T08:05:16.016Z,98861.69
2023-02-28T08:07:50.936Z,98864.94
2023-02-28T08:10:23.300Z,98861.34
2023-02-28T08:12:55.913Z,98865.81
2023-02-28T08:15:28.331Z,98863.88
2023-02-28T08:18:00.901Z,98871.31
2023-02-28T08:20:32.850Z,98861.88
2023-02-28T08:23:05.876Z,98875.16
2023-02-28T08:25:37.852Z,98868.34
2023-02-28T08:28:10.438Z,98872.94
2023-02-28T08:30:42.489Z,98859.28
2023-02-28T08:33:15.103Z,98861.81
2023-02-28T08:35:47.026Z,98876.91
2023-02-28T08:38:19.659Z,98873.78
2023-02-28T08:40:59.636Z,98876.56
2023-02-28T08:43:32.682Z,98870.94
2023-02-28T08:46:11.792Z,98876.81
2023-02-28T08:48:45.364Z,98885.78
2023-02-28T08:51:22.408Z,98880.91
2023-02-28T08:53:59.470Z,98878.22
2023-02-28T08:56:31.709Z,98874.19
2023-02-28T08:59:04.375Z,98882.63
2023-02-28T09:01:37.579Z,98890.19
2023-02-28T09:04:13.283Z,98889.69
2023-02-28T09:06:49.594Z,98884.78
2023-02-28T09:09:21.900Z,98872.41
2023-02-28T09:11:56.761Z,98883.72
2023-02-28T09:14:29.102Z,98866.53
2023-02-28T09:17:01.588Z,98870.25
2023-02-28T09:19:33.993Z,98859.47
2023-02-28T09:22:06.645Z,98861.50
2023-02-28T09:27:17.169Z,98864.78
2023-02-28T09:29:49.157Z,98863.66
2023-02-28T09:32:21.942Z,98867.81
2023-02-28T09:34:54.618Z,98877.81
2023-02-28T09:37:31.858Z,98876.09
2023-02-28T09:40:04.829Z,98880.97
2023-02-28T09:42:37.095Z,98876.28
2023-02-28T09:45:28.354Z,98881.88
2023-02-28T09:48:08.139Z,98881.94
2023-02-28T09:50:53.174Z,98881.59
2023-02-28T09:53:37.380Z,98885.34
2023-02-28T09:56:27.521Z,98888.03
2023-02-28T09:59:33.306Z,98894.81
2023-02-28T10:02:22.796Z,98876.47
2023-02-28T10:05:08.022Z,98878.75
2023-02-28T10:07:40.911Z,98883.47
2023-02-28T10:10:26.921Z,98886.81
2023-02-28T10:13:02.571Z,98876.28
2023-02-28T10:15:36.433Z,98886.91
2023-02-28T10:18:18.088Z,98889.00
2023-02-28T10:20:51.316Z,98891.94
2023-02-28T10:23:28.047Z,98901.50
2023-02-28T10:26:14.157Z,98880.84
2023-02-28T10:28:47.171Z,98895.03
2023-02-28T10:31:20.781Z,98904.56
2023-02-28T10:33:53.401Z,98901.06
2023-02-28T10:36:25.802Z,98908.72
2023-02-28T10:39:01.542Z,98895.38
2023-02-28T10:41:37.441Z,98903.06
2023-02-28T10:44:24.281Z,98887.72
2023-02-28T10:46:57.629Z,98892.44
2023-02-28T10:49:30.689Z,98909.81
2023-02-28T10:52:02.648Z,98912.50
2023-02-28T10:54:39.135Z,98910.38
2023-02-28T10:57:21.829Z,98911.81
2023-02-28T11:00:15.218Z,98899.53
2023-02-28T11:02:47.483Z,98919.03
2023-02-28T11:05:30.702Z,98917.38
2023-02-28T11:08:16.983Z,98903.59
2023-02-28T11:10:56.952Z,98906.44
2023-02-28T11:13:39.153Z,98907.81
2023-02-28T11:16:14.707Z,98914.25
2023-02-28T11:18:57.226Z,98927.81
2023-02-28T11:21:35.826Z,98920.59
2023-02-28T11:24:31.276Z,98906.75
2023-02-28T11:27:03.815Z,98911.25
2023-02-28T11:29:41.286Z,98905.69
2023-02-28T11:32:21.647Z,98911.41
2023-02-28T11:35:12.661Z,98909.38
2023-02-28T11:37:46.837Z,98900.03
2023-02-28T11:40:47.501Z,98908.56
2023-02-28T11:44:16.835Z,98918.69
2023-02-28T11:46:53.213Z,98911.75
2023-02-28T11:49:43.930Z,98912.19
2023-02-28T11:52:55.223Z,98914.63
2023-02-28T11:55:40.298Z,98907.06
2023-02-28T11:58:32.744Z,98910.97
2023-02-28T12:01:35.693Z,98908.25
2023-02-28T12:04:37.858Z,98904.66
2023-02-28T12:07:56.344Z,98912.09
2023-02-28T12:10:36.541Z,98910.19
2023-02-28T12:13:50.103Z,98909.22
2023-02-28T12:16:46.803Z,98904.03
2023-02-28T12:19:34.496Z,98900.94
2023-02-28T12:22:31.443Z,98900.25
2023-02-28T12:25:23.713Z,98909.13
2023-02-28T12:27:56.311Z,98897.69
2023-02-28T12:30:44.692Z,98905.97
2023-02-28T12:33:23.115Z,98905.56
2023-02-28T12:36:03.455Z,98896.50
2023-02-28T12:38:47.985Z,98886.75
2023-02-28T12:41:53.924Z,98898.34
2023-02-28T12:44:49.367Z,98902.03
2023-02-28T12:47:21.380Z,98893.56
2023-02-28T12:50:08.150Z,98908.03
2023-02-28T12:53:04.850Z,98896.25
2023-02-28T12:55:55.585Z,98891.81
2023-02-28T12:58:37.403Z,98893.28
2023-02-28T13:01:29.328Z,98882.81
2023-02-28T13:04:47.480Z,98896.69
2023-02-28T13:07:56.512Z,98886.94
2023-02-28T13:10:42.297Z,98871.75
2023-02-28T13:13:21.673Z,98876.53
2023-02-28T13:16:08.998Z,98875.91
2023-02-28T13:18:46.225Z,98875.13
2023-02-28T13:21:30.484Z,98881.31
2023-02-28T13:24:05.396Z,98888.88
2023-02-28T13:26:37.843Z,98894.81
2023-02-28T13:29:16.799Z,98887.22
2023-02-28T13:32:31.609Z,98886.19
2023-02-28T13:35:06.778Z,98886.25
2023-02-28T13:37:45.164Z,98886.88
2023-02-28T13:40:40.954Z,98885.03
2023-02-28T13:43:22.585Z,98888.50
2023-02-28T13:46:14.366Z,98894.97
2023-02-28T13:48:46.802Z,98898.19
2023-02-28T13:51:44.539Z,98890.91
2023-02-28T13:55:12.719Z,98885.03
2023-02-28T13:57:55.164Z,98888.91
2023-02-28T14:00:44.072Z,98897.25
2023-02-28T14:03:38.892Z,98891.97
2023-02-28T14:06:33.702Z,98894.69
2023-02-28T14:09:27.119Z,98882.66
2023-02-28T14:12:56.050Z,98889.19
2023-02-28T14:15:39.418Z,98898.03
2023-02-28T14:18:27.065Z,98895.09
2023-02-28T14:21:08.935Z,98893.03
2023-02-28T14:23:56.857Z,98899.94
2023-02-28T14:26:57.176Z,98914.94
2023-02-28T14:29:50.980Z,98907.09
2023-02-28T14:32:56.603Z,98899.97
2023-02-28T14:35:41.482Z,98900.38
2023-02-28T14:38:25.198Z,98902.56
2023-02-28T14:41:02.223Z,98904.31
2023-02-28T14:43:34.589Z,98909.91
2023-02-28T14:46:08.107Z,98895.03
2023-02-28T14:48:40.672Z,98900.72
2023-02-28T14:51:19.849Z,98902.22
2023-02-28T14:54:00.957Z,98906.13
2023-02-28T14:56:39.965Z,98912.09
2023-02-28T14:59:34.851Z,98909.38
2023-02-28T15:02:26.336Z,98915.69
2023-02-28T15:05:02.214Z,98926.28
2023-02-28T15:07:35.281Z,98906.88
2023-02-28T15:10:26.057Z,98917.56
2023-02-28T15:13:03.663Z,98913.81
2023-02-28T15:16:02.256Z,98912.94
2023-02-28T15:19:00.510Z,98918.00
2023-02-28T15:21:39.688Z,98917.22
2023-02-28T15:24:44.557Z,98919.13
2023-02-28T15:27:27.842Z,98922.28
2023-02-28T15:30:06.696Z,98920.19
2023-02-28T15:32:41.180Z,98920.44
2023-02-28T15:35:32.545Z,98927.50
2023-02-28T15:38:27.426Z,98925.78
2023-02-28T15:41:00.640Z,98926.47
2023-02-28T15:43:36.120Z,98930.84
2023-02-28T15:46:15.533Z,98927.63
2023-02-28T15:48:57.694Z,98933.75
2023-02-28T15:51:37.800Z,98932.34
2023-02-28T15:54:21.638Z,98931.84
2023-02-28T15:56:57.852Z,98927.38
2023-02-28T15:59:31.513Z,98930.41
2023-02-28T16:02:22.524Z,98930.94
2023-02-28T16:05:17.871Z,98940.72
2023-02-28T16:07:50.219Z,98942.16
2023-02-28T16:10:26.100Z,98940.13
2023-02-28T16:12:59.318Z,98943.41
2023-02-28T16:15:43.235Z,98946.38
2023-02-28T16:18:15.902Z,98940.84
2023-02-28T16:20:48.259Z,98944.34
2023-02-28T16:23:20.851Z,98953.22
2023-02-28T16:25:53.120Z,98945.19
2023-02-28T16:28:32.463Z,98954.47
2023-02-28T16:31:07.875Z,98949.66
2023-02-28T16:33:40.469Z,98948.38
2023-02-28T16:36:28.588Z,98949.06
2023-02-28T16:39:02.887Z,98947.31
2023-02-28T16:41:35.825Z,98954.41
2023-02-28T16:44:15.785Z,98958.88
2023-02-28T16:46:47.740Z,98957.97
2023-02-28T16:49:20.408Z,98968.50
2023-02-28T16:51:52.351Z,98965.56
2023-02-28T16:54:25.055Z,98969.94
2023-02-28T16:56:57.421Z,98969.09
2023-02-28T16:59:30.391Z,98974.66
2023-02-28T17:02:03.070Z,98978.44
2023-02-28T17:04:35.063Z,98969.84
2023-02-28T17:07:14.502Z,98979.03
2023-02-28T17:09:46.948Z,98977.50
2023-02-28T17:12:19.561Z,98977.53
2023-02-28T17:14:51.551Z,98975.78
2023-02-28T17:17:24.172Z,98980.88
2023-02-28T17:19:56.081Z,98983.31
2023-02-28T17:22:28.727Z,98991.91
2023-02-28T17:25:00.679Z,98992.00
2023-02-28T17:27:36.197Z,98992.66
2023-02-28T17:30:28.673Z,99000.69
2023-02-28T17:33:01.490Z,99002.78
2023-02-28T17:35:33.394Z,99005.75
2023-02-28T17:38:05.940Z,99002.94
2023-02-28T17:40:38.818Z,99007.78
2023-02-28T17:43:11.897Z,99010.50
2023-02-28T17:45:43.891Z,99007.69
2023-02-28T17:48:16.488Z,99010.56
2023-02-28T17:50:48.475Z,99011.16
2023-02-28T17:53:24.267Z,99018.56
2023-02-28T17:55:56.245Z,99014.44
2023-02-28T17:58:29.240Z,99011.81
2023-02-28T18:01:01.581Z,99013.56
2023-02-28T18:03:34.133Z,99021.16
2023-02-28T18:06:06.704Z,99022.53
2023-02-28T18:08:39.666Z,99022.53
2023-02-28T18:11:18.255Z,99024.81
2023-02-28T18:13:58.873Z,99021.88
2023-02-28T18:16:31.123Z,99012.00
2023-02-28T18:19:04.067Z,99016.94
2023-02-28T18:21:36.227Z,99023.53
2023-02-28T18:24:10.310Z,99021.22
2023-02-28T18:26:43.793Z,99026.66
2023-02-28T18:29:28.476Z,99029.56
2023-02-28T18:32:02.594Z,99025.63
2023-02-28T18:34:34.946Z,99023.84
2023-02-28T18:37:08.914Z,99028.50
2023-02-28T18:39:40.945Z,99029.53
2023-02-28T18:42:15.583Z,99029.19
2023-02-28T18:44:48.287Z,99029.19
2023-02-28T18:47:21.166Z,99027.03
2023-02-28T18:49:53.947Z,99030.31
2023-02-28T18:52:25.856Z,99030.91
2023-02-28T18:55:20.056Z,99021.44
2023-02-28T18:57:51.961Z,99024.84
2023-02-28T19:00:26.211Z,99024.16
2023-02-28T19:02:58.882Z,99015.13
2023-02-28T19:05:34.742Z,99019.75
2023-02-28T19:08:06.669Z,99015.94
2023-02-28T19:10:42.495Z,99019.50
2023-02-28T19:13:14.431Z,99024.22
2023-02-28T19:15:48.316Z,99024.09
2023-02-28T19:18:20.896Z,99020.03
2023-02-28T19:20:56.428Z,99021.41
2023-02-28T19:23:31.169Z,99017.69
2023-02-28T19:26:17.523Z,99013.72
2023-02-28T19:28:50.092Z,99014.28
2023-02-28T19:31:25.275Z,99024.41
2023-02-28T19:33:59.069Z,99014.72
2023-02-28T19:36:31.924Z,99015.88
2023-02-28T19:39:05.997Z,99006.91
2023-02-28T19:41:38.875Z,99012.94
2023-02-28T19:44:11.707Z,99014.03
2023-02-28T19:46:44.419Z,99013.03
2023-02-28T19:49:18.905Z,99011.03
2023-02-28T19:51:50.783Z,99005.03
2023-02-28T19:54:25.156Z,99012.03
2023-02-28T19:56:58.439Z,99009.25
2023-02-28T19:59:39.511Z,99005.84
2023-02-28T20:02:18.687Z,98995.94
2023-02-28T20:04:52.210Z,98995.41
2023-02-28T20:07:43.033Z,98989.56
2023-02-28T20:10:15.016Z,98986.59
2023-02-28T20:12:49.399Z,98986.19
2023-02-28T20:15:21.290Z,98998.88
2023-02-28T20:17:54.203Z,98994.06
2023-02-28T20:20:27.506Z,98991.50
2023-02-28T20:23:00.678Z,98992.31
2023-02-28T20:25:32.841Z,98991.28
2023-02-28T20:28:05.978Z,99002.34
2023-02-28T20:30:39.573Z,98993.19
2023-02-28T20:36:10.558Z,98989.06
2023-02-28T20:39:04.578Z,98992.78
2023-02-28T20:41:37.437Z,98992.53
2023-02-28T20:44:14.094Z,98992.31
2023-02-28T20:46:46.110Z,98995.34
2023-02-28T20:49:19.206Z,98986.19
2023-02-28T20:51:52.439Z,98979.09
2023-02-28T20:54:25.209Z,98979.31
2023-02-28T20:56:57.344Z,98990.81
2023-02-28T20:59:30.206Z,98987.53
2023-02-28T21:02:03.410Z,98986.78
2023-02-28T21:04:35.320Z,98985.53
2023-02-28T21:07:10.590Z,98985.44
2023-02-28T21:09:43.232Z,98985.13
2023-02-28T21:12:16.018Z,98988.28
2023-02-28T21:14:48.993Z,98984.31
2023-02-28T21:17:23.439Z,98980.47
2023-02-28T21:19:55.361Z,98980.91
2023-02-28T21:22:28.158Z,98977.66
2023-02-28T21:25:00.492Z,98978.34
2023-02-28T21:27:33.051Z,98973.69
2023-02-28T21:30:06.097Z,98980.22
2023-02-28T21:32:39.235Z,98982.13
2023-02-28T21:35:11.534Z,98971.28
2023-02-28T21:37:44.520Z,98969.69
2023-02-28T21:40:16.960Z,98967.13
2023-02-28T21:42:48.983Z,98968.03
2023-02-28T21:45:21.758Z,98968.59
2023-02-28T21:47:53.665Z,98965.78
2023-02-28T21:50:26.445Z,98971.94
2023-02-28T21:52:59.013Z,98968.88
2023-02-28T21:55:35.476Z,98968.09
2023-02-28T21:58:14.156Z,98963.19
2023-02-28T22:00:47.086Z,98967.91
2023-02-28T22:03:19.050Z,98960.59
2023-02-28T22:05:52.215Z,98965.84
2023-02-28T22:08:24.121Z,98963.13
2023-02-28T22:11:02.587Z,98969.31
2023-02-28T22:13:34.483Z,98964.50
2023-02-28T22:16:17.122Z,98970.66
2023-02-28T22:18:49.303Z,98970.44
2023-02-28T22:21:24.572Z,98967.84
2023-02-28T22:23:56.908Z,98970.13
2023-02-28T22:26:29.190Z,98968.56
2023-02-28T22:29:04.820Z,98970.47
2023-02-28T22:31:37.591Z,98968.19
2023-02-28T22:34:12.341Z,98965.28
2023-02-28T22:36:44.318Z,98964.44
2023-02-28T22:39:17.215Z,98967.69
2023-02-28T22:41:49.122Z,98957.38
2023-02-28T22:44:25.587Z,98949.88
2023-02-28T22:46:57.497Z,98957.25
2023-02-28T22:49:30.271Z,98954.66
2023-02-28T22:52:02.251Z,98958.25
2023-02-28T22:54:36.652Z,98959.66
2023-02-28T22:57:08.960Z,98954.84
2023-02-28T22:59:41.858Z,98958.56
2023-02-28T23:02:14.139Z,98959.13
2023-02-28T23:04:46.849Z,98960.28
2023-02-28T23:07:18.765Z,98958.25
2023-02-28T23:09:51.598Z,98965.16
2023-02-28T23:12:24.218Z,98964.47
2023-02-28T23:14:56.351Z,98960.34
2023-02-28T23:17:32.101Z,98956.16
2023-02-28T23:20:04.867Z,98947.09
2023-02-28T23:22:37.195Z,98945.94
2023-02-28T23:25:09.328Z,98954.44
2023-02-28T23:27:42.256Z,98957.94
2023-02-28T23:30:15.616Z,98956.22
2023-02-28T23:33:09.971Z,98964.63
2023-02-28T23:35:43.062Z,98956.75
2023-02-28T23:38:15.001Z,98960.88
2023-02-28T23:40:47.710Z,98958.91
2023-02-28T23:43:20.067Z,98953.97
2023-02-28T23:45:57.499Z,98955.63
2023-02-28T23:48:30.279Z,98954.22
2023-02-28T23:51:08.854Z,98953.50
2023-02-28T23:53:43.672Z,98948.06
2023-02-28T23:56:23.489Z,98948.78
2023-02-28T23:58:56.129Z,98946.75
